Sharp County Regional, AR

6:08 PM CDT on July 03, 2015 (GMT -0500)
Horseshoe Bend | | Change Station
CLOSE
Current Station
Personal Weather Station
Location: Horseshoe Bend, AR
Elevation: 787 ft
Nearby Weather Stations

Elev 787 ft 36.22 °N, 91.72 °W | Updated 7 seconds ago

Mostly Cloudy
Mostly Cloudy
71.0 °F
Feels Like 71.0 °F
N
4.0
Wind Variable Wind from SSW
Gusts 7.0 mph

Today
High -- | Low -- °F
--% Chance of Precip.
Yesterday
High -- | Low -- °F
Precip. -- in
5:53 AM 8:27 PM
Waning Gibbous, 95% visible
Pressure 29.86 in
Visibility 10.0 miles
Clouds Clear
Dew Point 69 °F
Humidity 94%
Rainfall 0.99 in
Snow Depth Not available.
UV 3 out of 12
Pollen .60 out of 12
Air Quality Not available.
Flu Activity Not available.
METAR KARG 032255Z AUTO 22009KT 10SM CLR 24/21 A2986 RMK AO1

More Conditions Fewer Conditions

Pressure 29.86 in
Visibility 10.0 miles
Clouds Clear
Dew Point 69 °F
Humidity 94%
Rainfall 0.99 in
Snow Depth Not available.
UV 3 out of 12
Pollen .60 out of 12
Air Quality Not available.
Flu Activity Not available.
METAR KARG 032255Z AUTO 22009KT 10SM CLR 24/21 A2986 RMK AO1

More Conditions Fewer Conditions

10-Day Weather Forecast

×

Almanac

Astronomy

Jul. 03, 2015 Rise Set
Actual Time
Civil Twilight
Nautical Twilight
Astronomical Twilight
Moon
Length of Visible Light
Length of Day
Tomorrow will be .
, % of the Moon is Illuminated

Today's Extremes

State Highs State Lows

Community

WunderPhotos

Upload Photos

1,834,818 photos uploaded!

WunderBlogs® & News

Nearby

Air Quality

  Air Quality AQ Index Pollutant
Not available.

Snow Depth

Station Depth Elevation

Earthquake Activity

City Distance Mag. Time & Date
Minimum magnitude displayed is 2.5.

Coastal Water Temperatures

Place Temperature

Stations

Nearby Weather Stations

Station Location Temp. Windchill Dew Point Humidity Wind Precip. Elev Updated Type